Time;durP1;ratioP1;P1;durP2;ratioP2;P2;SDS_P1;SDS_P2;PMS_P1;PMS_P2;Temp;Humidity;BMP_temperature;BMP_pressure;BME280_temperature;BME280_humidity;BME280_pressure;Samples;Min_cycle;Max_cycle;Signal;HPM_P1;HPM_P2
2022/08/24 00:00:38;;;;;;;30.45;21.48;;;20.90;99.50;;;;;;4214486;28;20491;-85
2022/08/24 00:02:39;;;;;;;30.35;22.30;;;20.90;99.50;;;;;;4214667;28;20123;-85
2022/08/24 00:04:40;;;;;;;35.08;23.35;;;20.80;99.50;;;;;;4215666;28;20075;-85
2022/08/24 00:06:41;;;;;;;30.42;21.75;;;20.80;99.50;;;;;;4215444;28;20048;-85
2022/08/24 00:08:45;;;;;;;32.30;21.90;;;20.80;99.60;;;;;;4215612;28;20044;-85
2022/08/24 00:10:45;;;;;;;28.52;20.48;;;20.80;99.70;;;;;;4214309;28;20052;-85
2022/08/24 00:12:47;;;;;;;28.25;21.30;;;20.70;99.70;;;;;;4197570;28;20409;-85
2022/08/24 00:14:47;;;;;;;30.48;21.13;;;20.70;99.70;;;;;;4215294;28;20036;-84
2022/08/24 00:16:48;;;;;;;27.70;20.00;;;20.70;99.80;;;;;;4197331;28;20411;-85
2022/08/24 00:18:49;;;;;;;28.80;20.15;;;20.70;99.80;;;;;;4215255;28;20079;-85
2022/08/24 00:20:50;;;;;;;29.95;20.27;;;20.70;99.80;;;;;;4215260;28;20056;-85
2022/08/24 00:22:51;;;;;;;30.80;20.25;;;20.70;99.80;;;;;;4215290;28;20055;-84
2022/08/24 00:24:52;;;;;;;31.30;21.52;;;20.70;99.90;;;;;;4197446;28;20075;-85
2022/08/24 00:26:53;;;;;;;28.33;21.73;;;20.70;99.90;;;;;;4215531;28;20032;-84
2022/08/24 00:28:54;;;;;;;34.67;20.88;;;20.60;99.90;;;;;;4197430;28;20044;-85
2022/08/24 00:30:55;;;;;;;31.75;22.38;;;20.60;99.90;;;;;;4213755;28;20051;-86
2022/08/24 00:32:57;;;;;;;31.80;21.60;;;20.60;99.90;;;;;;4213363;28;20518;-84
2022/08/24 00:34:58;;;;;;;32.20;22.77;;;20.60;99.90;;;;;;4215122;28;20104;-85
2022/08/24 00:36:58;;;;;;;26.05;20.08;;;20.50;99.90;;;;;;4214945;28;20048;-84
2022/08/24 00:39:00;;;;;;;31.33;20.92;;;20.50;99.90;;;;;;4213815;28;20186;-84
2022/08/24 00:41:01;;;;;;;31.35;19.27;;;20.50;99.90;;;;;;4196548;28;20095;-84
2022/08/24 00:43:04;;;;;;;29.08;19.85;;;20.50;99.90;;;;;;4213981;28;20531;-84
2022/08/24 00:45:07;;;;;;;27.83;18.20;;;20.50;99.90;;;;;;4214506;28;20408;-84
2022/08/24 00:47:19;;;;;;;26.75;20.05;;;20.50;99.90;;;;;;4196557;28;20049;-84
2022/08/24 00:49:29;;;;;;;29.35;19.92;;;20.50;99.90;;;;;;4215095;28;20055;-84
2022/08/24 00:51:39;;;;;;;29.08;19.77;;;20.50;99.90;;;;;;4213937;28;20074;-85
2022/08/24 00:53:47;;;;;;;32.45;20.05;;;20.50;99.90;;;;;;4213651;28;20048;-85
2022/08/24 00:55:53;;;;;;;31.58;20.85;;;20.50;99.90;;;;;;4213393;28;20447;-85
2022/08/24 00:57:59;;;;;;;31.65;19.30;;;20.50;99.90;;;;;;4213757;28;20303;-84
2022/08/24 01:00:25;;;;;;;33.22;20.65;;;20.50;99.90;;;;;;4213725;28;20139;-84
2022/08/24 01:02:31;;;;;;;32.38;21.23;;;20.50;99.90;;;;;;4213743;28;20462;-84
2022/08/24 01:04:38;;;;;;;33.38;20.42;;;20.50;99.90;;;;;;4214004;28;20135;-84
2022/08/24 01:06:40;;;;;;;30.65;19.42;;;20.50;99.90;;;;;;4214981;28;20052;-84
2022/08/24 01:08:40;;;;;;;29.58;19.63;;;20.50;99.90;;;;;;4213535;28;20052;-84
2022/08/24 01:10:51;;;;;;;28.00;19.05;;;20.50;99.90;;;;;;4213430;28;20500;-85
2022/08/24 01:12:56;;;;;;;29.23;19.45;;;20.50;99.90;;;;;;4214165;28;20105;-85
2022/08/24 01:14:59;;;;;;;27.35;19.13;;;20.40;99.90;;;;;;4197413;28;20136;-85
2022/08/24 01:19:42;;;;;;;28.60;19.25;;;20.40;99.90;;;;;;4214395;28;20056;-85
2022/08/24 01:21:53;;;;;;;28.90;18.40;;;20.40;99.90;;;;;;4214702;28;20512;-84
2022/08/24 01:24:01;;;;;;;24.60;18.45;;;20.30;99.90;;;;;;4214671;28;20481;-85
2022/08/24 01:26:03;;;;;;;28.77;19.17;;;20.30;99.90;;;;;;4214446;28;20101;-85
2022/08/24 01:28:09;;;;;;;36.80;20.15;;;20.30;99.90;;;;;;4215068;28;20084;-84
2022/08/24 01:30:12;;;;;;;30.08;20.00;;;20.30;99.90;;;;;;4213737;28;20052;-85
2022/08/24 01:32:13;;;;;;;34.25;20.52;;;20.20;99.90;;;;;;4214619;28;20052;-85
2022/08/24 01:34:14;;;;;;;29.15;18.70;;;20.20;99.90;;;;;;4212873;28;20543;-84
2022/08/24 01:36:44;;;;;;;28.85;18.83;;;20.20;99.90;;;;;;4213427;28;20141;-84
2022/08/24 01:38:46;;;;;;;29.85;19.45;;;20.20;99.90;;;;;;4214654;28;20127;-84
2022/08/24 01:40:51;;;;;;;36.25;21.27;;;20.20;99.90;;;;;;4213550;28;20427;-84
2022/08/24 01:42:52;;;;;;;33.83;20.70;;;20.20;99.90;;;;;;4213258;28;20591;-85
2022/08/24 01:44:55;;;;;;;35.78;21.80;;;20.20;99.90;;;;;;4213269;28;20055;-84
2022/08/24 01:46:56;;;;;;;29.23;19.73;;;20.20;99.90;;;;;;4213312;28;20131;-85
2022/08/24 01:48:58;;;;;;;32.55;20.73;;;20.20;99.90;;;;;;4214346;28;20093;-84
2022/08/24 01:50:58;;;;;;;29.58;19.77;;;20.20;99.90;;;;;;4212922;28;20048;-85
2022/08/24 01:53:03;;;;;;;34.15;20.13;;;20.20;99.90;;;;;;4214454;28;20538;-84
2022/08/24 01:55:13;;;;;;;28.80;19.33;;;20.20;99.90;;;;;;4212791;28;20581;-84
2022/08/24 01:57:14;;;;;;;31.90;21.35;;;20.20;99.90;;;;;;4197698;28;20431;-84
2022/08/24 01:59:15;;;;;;;29.70;19.60;;;20.20;99.90;;;;;;4216882;28;20075;-84
2022/08/24 02:01:17;;;;;;;28.15;19.75;;;20.20;99.90;;;;;;4216284;28;20090;-84
2022/08/24 02:03:17;;;;;;;28.50;19.15;;;20.20;99.90;;;;;;4216821;28;20525;-84
2022/08/24 02:05:18;;;;;;;31.30;19.85;;;20.20;99.90;;;;;;4217297;28;20083;-85
2022/08/24 02:07:19;;;;;;;31.13;19.02;;;20.10;99.90;;;;;;4198959;28;20044;-84
2022/08/24 02:09:19;;;;;;;27.30;18.65;;;20.10;99.90;;;;;;4216998;28;20040;-83
2022/08/24 02:11:21;;;;;;;27.90;18.08;;;20.10;99.90;;;;;;4216927;28;20051;-83
2022/08/24 02:13:23;;;;;;;31.25;18.88;;;20.10;99.90;;;;;;4216345;28;20052;-84
2022/08/24 02:15:29;;;;;;;30.38;18.80;;;20.00;99.90;;;;;;4217519;28;20040;-84
2022/08/24 02:17:30;;;;;;;26.83;19.20;;;20.00;99.90;;;;;;4215942;28;20443;-83
2022/08/24 02:19:31;;;;;;;27.38;19.75;;;20.00;99.90;;;;;;4216701;28;20040;-83
2022/08/24 02:21:32;;;;;;;26.77;18.48;;;20.00;99.90;;;;;;4217361;28;20048;-85
2022/08/24 02:23:33;;;;;;;28.70;18.38;;;20.00;99.90;;;;;;4215962;28;20092;-84
2022/08/24 02:25:34;;;;;;;29.23;18.80;;;20.00;99.90;;;;;;4198996;28;20487;-83
2022/08/24 02:27:35;;;;;;;29.98;19.88;;;20.00;99.90;;;;;;4215689;28;20044;-84
2022/08/24 02:29:36;;;;;;;29.17;19.70;;;20.00;99.90;;;;;;4217185;28;20039;-84
2022/08/24 02:31:36;;;;;;;29.40;19.02;;;20.00;99.90;;;;;;4215154;28;20056;-84
2022/08/24 02:33:38;;;;;;;30.23;18.45;;;19.90;99.90;;;;;;4217079;28;20036;-84
2022/08/24 02:35:40;;;;;;;26.77;19.15;;;19.90;99.90;;;;;;4215792;28;20048;-84
2022/08/24 02:37:41;;;;;;;29.27;19.80;;;19.90;99.90;;;;;;4215526;28;20048;-84
2022/08/24 02:39:42;;;;;;;27.60;18.77;;;19.90;99.90;;;;;;4216550;28;20051;-84
2022/08/24 02:41:43;;;;;;;32.00;19.13;;;19.90;99.90;;;;;;4214895;28;20493;-84
2022/08/24 02:43:45;;;;;;;28.77;20.08;;;19.90;99.90;;;;;;4216771;28;20442;-84
2022/08/24 02:45:46;;;;;;;27.05;17.38;;;19.80;99.90;;;;;;4215310;28;20129;-84
2022/08/24 02:47:48;;;;;;;27.50;18.80;;;19.80;99.90;;;;;;4215423;28;20044;-84
2022/08/24 02:49:48;;;;;;;27.45;18.50;;;19.80;99.90;;;;;;4216866;28;20044;-84
2022/08/24 02:51:50;;;;;;;27.77;18.90;;;19.80;99.90;;;;;;4198785;28;20137;-84
2022/08/24 02:53:51;;;;;;;27.95;18.25;;;19.80;99.90;;;;;;4216335;28;20040;-83
2022/08/24 02:55:52;;;;;;;33.60;18.27;;;19.80;99.90;;;;;;4215363;28;20042;-84
2022/08/24 02:57:52;;;;;;;31.77;19.40;;;19.80;99.90;;;;;;4215210;28;20455;-84
2022/08/24 02:59:53;;;;;;;28.38;17.63;;;19.80;99.90;;;;;;4215381;28;20051;-84
2022/08/24 03:01:54;;;;;;;26.80;18.15;;;19.70;99.90;;;;;;4217070;28;20051;-84
2022/08/24 03:03:56;;;;;;;27.73;19.20;;;19.70;99.90;;;;;;4215243;28;20137;-84
2022/08/24 03:05:57;;;;;;;30.50;20.23;;;19.70;99.90;;;;;;4215355;28;20068;-84
2022/08/24 03:07:57;;;;;;;31.20;19.23;;;19.60;99.90;;;;;;4215141;28;20044;-83
2022/08/24 03:09:58;;;;;;;29.30;18.10;;;19.60;99.90;;;;;;4216166;28;20044;-84
2022/08/24 03:11:59;;;;;;;24.02;17.35;;;19.60;99.90;;;;;;4215116;28;20082;-85
2022/08/24 03:14:00;;;;;;;26.77;16.83;;;19.60;99.90;;;;;;4215051;28;20052;-84
2022/08/24 03:16:02;;;;;;;27.45;17.80;;;19.60;99.90;;;;;;4214726;28;20047;-84
2022/08/24 03:18:02;;;;;;;27.20;18.23;;;19.60;99.90;;;;;;4214793;28;20044;-83
2022/08/24 03:20:06;;;;;;;23.67;17.55;;;19.60;99.90;;;;;;4215673;28;20070;-84
2022/08/24 03:22:07;;;;;;;25.65;16.92;;;19.60;99.90;;;;;;4216004;28;20052;-83
2022/08/24 03:24:08;;;;;;;26.77;17.40;;;19.50;99.90;;;;;;4214819;28;20047;-84
2022/08/24 03:26:11;;;;;;;30.52;17.60;;;19.50;99.90;;;;;;4214626;28;20106;-84
2022/08/24 03:28:12;;;;;;;30.70;16.95;;;19.50;99.90;;;;;;4215704;28;20058;-84
2022/08/24 03:30:14;;;;;;;27.65;18.33;;;19.50;99.90;;;;;;4214532;28;20122;-84
2022/08/24 03:32:14;;;;;;;23.27;16.88;;;19.50;99.90;;;;;;4215347;28;20071;-83
2022/08/24 03:34:15;;;;;;;24.67;16.10;;;19.50;99.90;;;;;;4216100;28;20036;-84
2022/08/24 03:36:17;;;;;;;25.00;17.70;;;19.40;99.90;;;;;;4216096;28;20048;-83
2022/08/24 03:38:18;;;;;;;28.08;17.45;;;19.40;99.90;;;;;;4215699;28;20441;-85
2022/08/24 03:40:19;;;;;;;31.98;17.27;;;19.50;99.90;;;;;;4214657;28;20442;-85
2022/08/24 03:42:19;;;;;;;26.00;17.75;;;19.40;99.90;;;;;;4215828;28;20123;-84
2022/08/24 03:44:24;;;;;;;27.98;17.85;;;19.40;99.90;;;;;;4214425;28;20044;-84
2022/08/24 03:46:27;;;;;;;27.55;17.80;;;19.40;99.90;;;;;;4214226;28;20109;-84
2022/08/24 03:48:29;;;;;;;25.27;17.38;;;19.40;99.90;;;;;;4215097;28;20123;-83
2022/08/24 03:50:30;;;;;;;25.25;17.90;;;19.40;99.90;;;;;;4214299;28;20081;-85
2022/08/24 03:52:32;;;;;;;25.77;16.17;;;19.30;99.90;;;;;;4215951;28;20090;-84
2022/08/24 03:54:33;;;;;;;26.75;18.80;;;19.30;99.90;;;;;;4215688;28;20482;-83
2022/08/24 03:56:34;;;;;;;23.55;16.80;;;19.30;99.90;;;;;;4215704;28;20064;-83
2022/08/24 03:58:36;;;;;;;26.48;17.92;;;19.30;99.90;;;;;;4215618;28;20043;-83
2022/08/24 04:00:40;;;;;;;29.67;17.55;;;19.20;99.90;;;;;;4214817;28;20089;-84
2022/08/24 04:02:43;;;;;;;26.20;16.23;;;19.30;99.90;;;;;;4215242;28;20122;-83
2022/08/24 04:04:43;;;;;;;24.15;16.75;;;19.20;99.90;;;;;;4214516;28;20067;-83
2022/08/24 04:06:45;;;;;;;25.20;16.48;;;19.20;99.90;;;;;;4215416;28;20044;-84
2022/08/24 04:08:46;;;;;;;22.42;16.00;;;19.20;99.90;;;;;;4215387;28;20040;-84
2022/08/24 04:10:47;;;;;;;26.17;15.80;;;19.20;99.90;;;;;;4215599;28;20055;-85
2022/08/24 04:12:48;;;;;;;25.25;17.00;;;19.20;99.90;;;;;;4215209;28;20051;-84
2022/08/24 04:14:54;;;;;;;26.48;17.92;;;19.20;99.90;;;;;;4215148;28;20484;-84
2022/08/24 04:16:55;;;;;;;26.20;16.90;;;19.10;99.90;;;;;;4215367;28;20451;-84
2022/08/24 04:18:56;;;;;;;24.77;16.35;;;19.10;99.90;;;;;;4215268;28;20047;-84
2022/08/24 04:20:57;;;;;;;22.52;16.17;;;19.10;99.90;;;;;;4214116;28;20092;-84
2022/08/24 04:22:58;;;;;;;22.63;14.85;;;19.10;99.90;;;;;;4214823;28;20507;-84
2022/08/24 04:24:59;;;;;;;23.67;16.17;;;19.10;99.90;;;;;;4213626;28;20500;-84
2022/08/24 04:27:00;;;;;;;25.50;17.35;;;19.10;99.90;;;;;;4215028;28;20040;-85
2022/08/24 04:29:02;;;;;;;26.63;16.95;;;19.00;99.90;;;;;;4214866;28;20040;-84
2022/08/24 04:31:05;;;;;;;25.45;16.40;;;19.00;99.90;;;;;;4214178;28;20051;-84
2022/08/24 04:33:06;;;;;;;23.85;16.00;;;19.00;99.90;;;;;;4215118;28;20071;-84
2022/08/24 04:35:07;;;;;;;21.65;14.68;;;19.00;99.90;;;;;;4214808;28;20029;-85
2022/08/24 04:37:08;;;;;;;26.55;16.75;;;19.00;99.90;;;;;;4213612;28;20471;-84
2022/08/24 04:39:09;;;;;;;28.98;16.23;;;19.00;99.90;;;;;;4213857;28;20058;-84
2022/08/24 04:41:12;;;;;;;24.83;15.73;;;19.00;99.90;;;;;;4213366;28;20044;-85
2022/08/24 04:43:14;;;;;;;22.45;15.55;;;19.00;99.90;;;;;;4214443;28;20043;-84
2022/08/24 04:45:14;;;;;;;25.42;16.20;;;19.00;99.90;;;;;;4214360;28;20051;-85
2022/08/24 04:47:16;;;;;;;23.95;16.60;;;19.00;99.90;;;;;;4214417;28;20040;-84
2022/08/24 04:49:17;;;;;;;20.35;14.60;;;19.00;99.90;;;;;;4214429;28;20040;-85
2022/08/24 04:51:19;;;;;;;20.45;14.52;;;19.00;99.90;;;;;;4214803;28;20093;-84
2022/08/24 04:53:20;;;;;;;20.98;15.00;;;18.90;99.90;;;;;;4214638;28;20055;-84
2022/08/24 04:55:21;;;;;;;22.30;15.43;;;19.00;99.90;;;;;;4214828;28;20036;-83
2022/08/24 04:57:21;;;;;;;26.38;16.20;;;18.90;99.90;;;;;;4213372;28;20134;-83
2022/08/24 04:59:22;;;;;;;25.70;15.63;;;18.90;99.90;;;;;;4214547;28;20055;-84
2022/08/24 05:01:26;;;;;;;27.15;15.98;;;18.90;99.90;;;;;;4213093;28;20047;-84
2022/08/24 05:03:27;;;;;;;23.05;16.77;;;18.90;99.90;;;;;;4214483;28;20115;-84
2022/08/24 05:05:28;;;;;;;23.83;16.55;;;18.90;99.90;;;;;;4214819;28;20101;-84
2022/08/24 05:07:28;;;;;;;29.80;17.20;;;18.90;99.90;;;;;;4214660;28;20115;-84
2022/08/24 05:09:30;;;;;;;26.65;17.73;;;19.00;99.90;;;;;;4212850;28;20082;-84
2022/08/24 05:11:31;;;;;;;25.48;16.63;;;19.00;99.90;;;;;;4214644;28;20075;-84
2022/08/24 05:13:32;;;;;;;20.95;15.43;;;19.00;99.90;;;;;;4214348;28;20040;-84
2022/08/24 05:15:34;;;;;;;27.00;15.93;;;19.00;99.90;;;;;;4212870;28;20522;-84
2022/08/24 05:17:35;;;;;;;23.10;16.02;;;19.10;99.90;;;;;;4214123;28;20040;-84
2022/08/24 05:19:36;;;;;;;22.52;15.45;;;19.10;99.90;;;;;;4214150;28;20454;-84
2022/08/24 05:21:38;;;;;;;23.77;15.80;;;19.10;99.90;;;;;;4214285;28;20044;-84
2022/08/24 05:23:39;;;;;;;24.60;16.60;;;19.10;99.90;;;;;;4214350;28;20054;-83
2022/08/24 05:25:41;;;;;;;22.30;15.23;;;19.20;99.90;;;;;;4214368;28;20047;-84
2022/08/24 05:27:41;;;;;;;27.02;16.45;;;19.20;99.90;;;;;;4213791;28;20488;-84
2022/08/24 05:29:43;;;;;;;25.33;16.90;;;19.20;99.90;;;;;;4213740;28;20043;-83
2022/08/24 05:31:45;;;;;;;26.35;16.77;;;19.20;99.90;;;;;;4215179;28;20177;-84
2022/08/24 05:33:47;;;;;;;28.92;17.35;;;19.30;99.90;;;;;;4217780;28;20499;-84
2022/08/24 05:35:48;;;;;;;28.38;16.98;;;19.30;99.90;;;;;;4217298;28;20040;-84
2022/08/24 05:37:49;;;;;;;26.20;16.80;;;19.30;99.90;;;;;;4217233;28;20496;-84
2022/08/24 05:39:50;;;;;;;26.85;16.48;;;19.40;99.90;;;;;;4217675;28;20063;-84
2022/08/24 05:41:50;;;;;;;26.42;16.92;;;19.40;99.90;;;;;;4216093;28;20040;-84
2022/08/24 05:43:52;;;;;;;25.58;16.42;;;19.40;99.90;;;;;;4217532;28;20118;-84
2022/08/24 05:45:52;;;;;;;23.05;16.10;;;19.50;99.90;;;;;;4217901;28;20404;-83
2022/08/24 05:47:53;;;;;;;32.65;17.65;;;19.50;99.90;;;;;;4216142;28;20090;-84
2022/08/24 05:49:54;;;;;;;25.83;16.80;;;19.60;99.90;;;;;;4216374;28;20047;-84
2022/08/24 05:51:54;;;;;;;28.10;17.83;;;19.60;99.90;;;;;;4217319;28;20102;-85
2022/08/24 05:53:57;;;;;;;23.17;15.52;;;19.70;99.90;;;;;;4216978;28;20043;-84
2022/08/24 05:55:58;;;;;;;24.35;16.92;;;19.70;99.90;;;;;;4217272;28;20044;-84
2022/08/24 05:57:58;;;;;;;23.55;15.45;;;19.80;99.90;;;;;;4216651;28;20507;-84
2022/08/24 06:00:00;;;;;;;25.55;17.63;;;19.80;99.90;;;;;;4217421;28;20054;-83
2022/08/24 06:02:00;;;;;;;25.58;18.90;;;19.90;99.90;;;;;;4216242;28;20060;-84
2022/08/24 06:04:01;;;;;;;24.77;16.73;;;20.00;99.90;;;;;;4215824;28;20077;-84
2022/08/24 06:06:03;;;;;;;26.65;17.38;;;20.00;99.90;;;;;;4217109;28;20040;-84
2022/08/24 06:08:04;;;;;;;24.13;17.05;;;20.10;99.90;;;;;;4214831;28;20043;-84
2022/08/24 06:10:05;;;;;;;27.13;18.00;;;20.10;99.90;;;;;;4215959;28;20056;-86
2022/08/24 06:12:07;;;;;;;26.20;18.17;;;20.20;99.90;;;;;;4216132;28;20157;-84
2022/08/24 06:14:17;;;;;;;32.88;20.77;;;20.30;99.90;;;;;;4217534;28;20051;-84
2022/08/24 06:16:18;;;;;;;32.20;21.38;;;20.40;99.90;;;;;;4217168;28;20100;-85
2022/08/24 06:18:18;;;;;;;33.47;21.67;;;20.50;99.90;;;;;;4216406;28;20503;-84
2022/08/24 06:20:19;;;;;;;29.90;20.38;;;20.60;99.90;;;;;;4215011;28;20060;-84
2022/08/24 06:22:20;;;;;;;34.58;21.20;;;20.60;99.90;;;;;;4216876;28;20044;-85
2022/08/24 06:27:20;;;;;;;33.05;21.48;;;20.70;99.90;;;;;;4216849;28;20124;-84
2022/08/24 06:29:04;;;;;;;31.33;21.33;;;20.90;99.90;;;;;;4216977;28;20056;-84
2022/08/24 06:31:06;;;;;;;34.25;21.38;;;21.10;99.90;;;;;;4216906;28;20400;-84
2022/08/24 06:33:06;;;;;;;32.95;21.30;;;21.20;99.90;;;;;;4214966;28;20048;-85
2022/08/24 06:35:08;;;;;;;30.65;22.27;;;21.20;99.90;;;;;;4216058;28;20066;-85
2022/08/24 06:37:08;;;;;;;30.95;21.38;;;21.30;99.90;;;;;;4215445;28;20036;-84
2022/08/24 06:39:09;;;;;;;32.33;20.10;;;21.40;99.90;;;;;;4215524;28;20056;-85
2022/08/24 06:41:10;;;;;;;31.30;19.77;;;21.40;99.90;;;;;;4216607;28;20040;-85
2022/08/24 06:43:11;;;;;;;27.17;18.67;;;21.50;99.90;;;;;;4215514;28;20476;-85
2022/08/24 06:45:15;;;;;;;28.60;18.75;;;21.60;99.90;;;;;;4216706;28;20105;-85
2022/08/24 06:47:17;;;;;;;27.92;18.95;;;21.60;99.90;;;;;;4216551;28;20396;-85
2022/08/24 06:49:18;;;;;;;33.13;21.10;;;21.70;99.90;;;;;;4216835;28;20075;-85
2022/08/24 06:51:21;;;;;;;32.47;21.00;;;21.80;99.90;;;;;;4216107;28;20040;-84
2022/08/24 06:53:22;;;;;;;29.38;20.13;;;21.90;99.90;;;;;;4216185;28;20043;-85
2022/08/24 06:55:23;;;;;;;30.60;19.27;;;22.00;99.90;;;;;;4218220;28;20399;-84
2022/08/24 06:57:24;;;;;;;29.08;19.20;;;22.10;99.90;;;;;;4216115;28;20032;-84
2022/08/24 06:59:26;;;;;;;34.42;19.10;;;22.20;99.90;;;;;;4216435;28;20040;-83
2022/08/24 07:01:27;;;;;;;33.33;17.27;;;22.20;99.90;;;;;;4215410;28;20051;-84
2022/08/24 07:03:29;;;;;;;24.35;15.93;;;22.40;99.90;;;;;;4215995;28;20040;-84
2022/08/24 07:05:29;;;;;;;21.27;13.98;;;22.50;99.90;;;;;;4216112;28;20079;-84
2022/08/24 07:07:31;;;;;;;21.67;12.80;;;22.60;99.90;;;;;;4215205;28;20040;-84
2022/08/24 07:09:32;;;;;;;19.83;12.32;;;22.70;99.90;;;;;;4215975;28;20185;-84
2022/08/24 07:11:34;;;;;;;16.85;11.18;;;22.70;99.80;;;;;;4214439;28;20047;-84
2022/08/24 07:13:35;;;;;;;18.60;11.18;;;22.80;99.50;;;;;;4215716;28;20416;-84
2022/08/24 07:15:36;;;;;;;18.60;11.80;;;22.90;99.30;;;;;;4198160;28;20400;-84
2022/08/24 07:17:37;;;;;;;18.67;10.75;;;23.00;99.20;;;;;;4216240;28;20508;-86
2022/08/24 07:19:38;;;;;;;13.52;10.10;;;23.10;98.90;;;;;;4215387;28;20044;-86
2022/08/24 07:21:39;;;;;;;19.13;10.27;;;23.30;98.80;;;;;;4213934;28;20060;-87
2022/08/24 07:23:41;;;;;;;13.50;9.55;;;23.40;98.60;;;;;;4214089;28;20135;-86
2022/08/24 07:25:43;;;;;;;16.35;10.10;;;23.40;98.20;;;;;;4215472;28;20085;-86
2022/08/24 07:27:43;;;;;;;16.63;10.00;;;23.60;98.10;;;;;;4215031;28;20081;-85
2022/08/24 07:29:44;;;;;;;17.00;8.90;;;23.80;98.40;;;;;;4214882;28;20032;-85
2022/08/24 07:31:47;;;;;;;12.70;8.48;;;23.90;98.10;;;;;;4196844;28;20056;-85
2022/08/24 07:33:48;;;;;;;17.00;9.00;;;24.10;97.80;;;;;;4215661;28;20107;-85
2022/08/24 07:35:49;;;;;;;12.90;7.20;;;24.10;97.40;;;;;;4216670;28;20389;-86
2022/08/24 07:37:50;;;;;;;14.30;7.55;;;24.20;97.20;;;;;;4216869;28;20036;-85
2022/08/24 07:39:51;;;;;;;11.23;7.00;;;24.30;97.00;;;;;;4215982;28;20050;-84
2022/08/24 07:41:51;;;;;;;12.30;6.80;;;24.50;96.80;;;;;;4215950;28;20048;-84
2022/08/24 07:43:53;;;;;;;8.90;6.65;;;24.60;96.50;;;;;;4215708;28;20036;-84
2022/08/24 07:45:54;;;;;;;9.23;5.97;;;24.60;96.10;;;;;;4216107;28;20044;-84
2022/08/24 07:47:55;;;;;;;8.68;5.25;;;24.70;95.70;;;;;;4215081;28;20504;-83
2022/08/24 07:49:56;;;;;;;11.25;5.25;;;24.70;95.30;;;;;;4198047;28;20157;-83
2022/08/24 07:51:57;;;;;;;9.77;4.90;;;24.80;95.10;;;;;;4215611;28;20450;-83
2022/08/24 07:54:00;;;;;;;7.07;4.22;;;24.90;95.10;;;;;;4216140;28;20044;-83
2022/08/24 07:56:01;;;;;;;6.93;4.28;;;25.00;94.90;;;;;;4216076;28;20044;-82
2022/08/24 07:58:02;;;;;;;5.72;3.03;;;25.20;94.70;;;;;;4215990;28;20487;-83
2022/08/24 08:00:08;;;;;;;7.70;3.80;;;25.40;94.40;;;;;;4214838;28;20044;-85
2022/08/24 08:02:10;;;;;;;6.63;3.42;;;25.80;94.30;;;;;;4214825;28;20044;-83
2022/08/24 08:04:12;;;;;;;10.23;3.80;;;25.80;94.00;;;;;;4198163;28;20052;-84
2022/08/24 08:06:13;;;;;;;8.75;4.25;;;25.90;93.60;;;;;;4215465;28;20043;-84
2022/08/24 08:08:15;;;;;;;9.68;3.28;;;25.90;93.10;;;;;;4213961;28;20035;-85
2022/08/24 08:10:16;;;;;;;6.82;3.78;;;26.00;92.90;;;;;;4197758;28;20051;-84
2022/08/24 08:12:18;;;;;;;6.63;3.20;;;26.10;92.70;;;;;;4215119;28;20713;-84
2022/08/24 08:14:19;;;;;;;6.30;3.58;;;26.20;92.60;;;;;;4215534;28;20052;-84
2022/08/24 08:16:20;;;;;;;7.70;4.60;;;26.50;92.30;;;;;;4198004;28;20206;-85
2022/08/24 08:18:22;;;;;;;7.43;2.92;;;26.40;91.80;;;;;;4215388;28;20048;-84
2022/08/24 08:20:23;;;;;;;5.50;3.15;;;26.50;91.70;;;;;;4214125;28;20488;-84
2022/08/24 08:24:44;;;;;;;6.45;4.10;;;27.00;91.30;;;;;;4216786;28;20044;-83
2022/08/24 08:26:46;;;;;;;8.57;4.15;;;26.90;90.70;;;;;;4215996;28;20058;-84
2022/08/24 08:28:47;;;;;;;7.45;4.00;;;26.80;90.30;;;;;;4214608;28;20040;-84
2022/08/24 08:30:49;;;;;;;5.75;3.88;;;26.90;90.20;;;;;;4197247;28;20083;-84
2022/08/24 08:32:52;;;;;;;7.65;4.40;;;27.00;90.10;;;;;;4215338;28;20040;-84
2022/08/24 08:34:53;;;;;;;8.20;3.80;;;27.00;89.80;;;;;;4212921;28;20043;-84
2022/08/24 08:36:54;;;;;;;7.65;4.15;;;27.00;89.80;;;;;;4220096;28;20130;-85
2022/08/24 08:38:55;;;;;;;8.32;3.92;;;27.30;89.30;;;;;;4218351;28;20066;-83
2022/08/24 08:41:16;;;;;;;6.47;3.33;;;27.50;88.90;;;;;;4214546;28;20124;-83
2022/08/24 08:43:59;;;;;;;8.88;3.88;;;27.90;89.20;;;;;;4214194;28;20119;-83
2022/08/24 08:46:23;;;;;;;6.20;3.50;;;27.80;86.10;;;;;;4214339;28;20042;-82
2022/08/24 08:48:57;;;;;;;10.40;4.25;;;27.90;86.70;;;;;;4213785;28;20417;-83
2022/08/24 08:51:32;;;;;;;8.52;3.40;;;27.70;83.70;;;;;;4214552;28;20052;-83
2022/08/24 08:53:54;;;;;;;4.97;3.33;;;27.70;83.70;;;;;;4215412;28;20052;-84
2022/08/24 08:56:09;;;;;;;6.90;3.33;;;27.80;84.80;;;;;;4215384;28;20048;-84
2022/08/24 08:58:45;;;;;;;11.32;2.80;;;28.00;82.40;;;;;;4213634;28;20047;-83
2022/08/24 09:01:02;;;;;;;5.57;2.80;;;28.10;82.40;;;;;;4214930;28;20506;-83
2022/08/24 09:03:17;;;;;;;8.13;2.60;;;28.30;83.50;;;;;;4213177;28;20048;-82
2022/08/24 09:05:30;;;;;;;8.25;3.30;;;28.60;81.90;;;;;;4214955;28;20460;-82
2022/08/24 09:07:54;;;;;;;10.27;3.15;;;28.50;81.00;;;;;;4213111;28;20040;-83
2022/08/24 09:10:28;;;;;;;6.30;2.70;;;28.60;79.10;;;;;;4203201;28;20413;-83
2022/08/24 09:13:23;;;;;;;7.45;2.83;;;28.60;80.20;;;;;;4196951;28;20056;-82
2022/08/24 09:15:38;;;;;;;5.22;2.60;;;28.60;77.40;;;;;;4195892;28;20113;-83
2022/08/24 09:17:58;;;;;;;3.00;2.05;;;28.60;79.80;;;;;;4197994;28;20080;-83
2022/08/24 09:20:04;;;;;;;3.70;2.20;;;28.80;78.80;;;;;;4198055;28;20052;-83
2022/08/24 09:22:17;;;;;;;3.38;2.50;;;29.00;79.50;;;;;;4197816;28;20055;-83
2022/08/24 09:24:26;;;;;;;7.72;2.13;;;29.20;77.50;;;;;;4196648;28;20040;-83
2022/08/24 09:26:31;;;;;;;6.97;4.00;;;29.40;78.10;;;;;;4210708;28;20044;-83
2022/08/24 09:28:48;;;;;;;10.40;2.97;;;29.40;77.90;;;;;;4197290;28;20040;-83
2022/08/24 09:31:09;;;;;;;4.40;2.28;;;29.60;77.50;;;;;;4213939;28;20147;-83
2022/08/24 09:33:20;;;;;;;4.22;3.03;;;29.80;78.20;;;;;;4213803;28;20434;-82
2022/08/24 09:35:32;;;;;;;4.40;2.50;;;30.10;76.20;;;;;;4213519;28;20039;-83
2022/08/24 09:37:59;;;;;;;3.88;1.95;;;30.30;75.90;;;;;;4213195;28;20046;-83
2022/08/24 09:40:10;;;;;;;9.27;2.30;;;30.80;76.70;;;;;;4212476;28;20083;-83
2022/08/24 09:43:02;;;;;;;3.58;2.70;;;31.10;76.90;;;;;;4213282;28;20056;-83
2022/08/24 09:45:05;;;;;;;13.23;2.95;;;31.50;74.40;;;;;;4167701;28;20059;-83
2022/08/24 09:47:09;;;;;;;6.82;2.15;;;31.70;73.20;;;;;;4212739;28;20036;-84
2022/08/24 09:49:43;;;;;;;8.93;2.85;;;31.70;71.60;;;;;;4215049;28;20055;-83
2022/08/24 09:52:31;;;;;;;5.90;2.47;;;31.50;72.60;;;;;;4213081;28;20044;-84
2022/08/24 09:54:52;;;;;;;9.60;2.03;;;31.30;69.00;;;;;;4152729;28;20094;-83
2022/08/24 09:57:19;;;;;;;3.08;2.22;;;31.00;71.50;;;;;;4214821;28;20044;-83
2022/08/24 09:59:32;;;;;;;2.40;1.83;;;30.90;69.80;;;;;;4189519;28;20051;-83
2022/08/24 10:01:46;;;;;;;3.50;2.03;;;31.00;70.70;;;;;;4214006;28;20408;-83
2022/08/24 10:04:19;;;;;;;5.72;2.10;;;31.30;70.30;;;;;;4213033;28;20090;-83
2022/08/24 10:06:26;;;;;;;4.05;1.80;;;31.40;68.50;;;;;;4215121;28;20051;-83
2022/08/24 10:09:24;;;;;;;3.05;1.67;;;31.50;68.50;;;;;;4214415;28;20408;-83
2022/08/24 10:11:46;;;;;;;5.65;1.67;;;31.60;65.40;;;;;;4179199;28;20160;-83
2022/08/24 10:14:01;;;;;;;6.18;2.40;;;31.70;68.80;;;;;;4179470;28;20045;-82
2022/08/24 10:16:16;;;;;;;3.33;2.35;;;31.80;66.30;;;;;;4158091;28;20052;-83
2022/08/24 10:18:31;;;;;;;5.63;2.35;;;32.00;65.80;;;;;;4216595;28;20122;-83
2022/08/24 10:20:45;;;;;;;4.10;2.15;;;32.00;65.60;;;;;;4217537;28;20048;-83
2022/08/24 10:23:03;;;;;;;3.00;1.85;;;32.20;65.90;;;;;;4215886;28;20059;-83
2022/08/24 10:25:19;;;;;;;6.90;1.45;;;32.20;63.50;;;;;;4217737;28;20055;-83
2022/08/24 10:27:31;;;;;;;3.60;1.45;;;32.10;64.90;;;;;;4216305;28;20032;-83
2022/08/24 10:29:59;;;;;;;4.88;2.00;;;32.10;65.40;;;;;;4215994;28;20066;-83
2022/08/24 10:32:06;;;;;;;5.33;1.97;;;32.40;64.40;;;;;;4215401;28;20069;-82
2022/08/24 10:34:17;;;;;;;5.45;1.63;;;32.40;64.80;;;;;;4215932;28;20040;-82
2022/08/24 10:36:36;;;;;;;6.68;2.30;;;32.20;63.50;;;;;;4215278;28;20525;-83
2022/08/24 10:41:42;;;;;;;5.60;1.88;;;32.40;62.80;;;;;;4217176;28;20488;-83
2022/08/24 10:44:06;;;;;;;3.40;1.63;;;32.30;62.00;;;;;;4218072;28;20044;-83
2022/08/24 10:46:32;;;;;;;3.30;2.10;;;32.30;64.90;;;;;;4192832;28;20397;-83
2022/08/24 10:48:46;;;;;;;4.10;1.92;;;32.40;62.10;;;;;;4214598;28;20052;-83
2022/08/24 10:51:07;;;;;;;3.35;2.30;;;32.70;62.60;;;;;;4215319;28;20052;-83